Buoy 41560

sailwx.info

Track history (hours):
 
Tides and Currents Weather Stations Pressure Air Temp Water Temp Dewpoint Dewpoint Depression Visibility Wind Speed Wind Dir Waves Ship Positions

Drifting buoy 41560

Last reported at 2014-Jul-24 16:00 UTC. Time now 2014-Jul-24 17:52 UTC.
Position N 40°34' W 022°47'.

Barometer 1019.9 mb

Date/timePositionNaut miles runAvg speedWind from/ knotsBaromVisibWave heightAir tempDewpointWater temp
2014-Jul-24 16:00N 40°34' W 022°47'1 0.7 1019.9
2014-Jul-24 15:00N 40°33' W 022°47'1 0.7 1020.5
2014-Jul-24 13:00N 40°32' W 022°46'1 0.8 1021.3
2014-Jul-24 12:00N 40°32' W 022°45'0 0.3 1021.9
2014-Jul-24 11:00N 40°32' W 022°45'0 0.5 1021.6
2014-Jul-24 10:00N 40°32' W 022°44'2 0.6 1022.0
2014-Jul-24 07:00N 40°30' W 022°44'0 0.3 1022.0
2014-Jul-24 06:00N 40°30' W 022°44'0 0.5 1022.3
2014-Jul-24 05:00N 40°29' W 022°44'1 0.6 1022.4
2014-Jul-24 03:00N 40°28' W 022°45'3 0.9 1023.2
2014-Jul-24 00:00N 40°26' W 022°42'0 0.0 1024.5
2014-Jul-23 23:00N 40°26' W 022°42'1 0.6 1024.6
2014-Jul-23 21:00N 40°26' W 022°41'0 0.4 1024.5
2014-Jul-23 20:00N 40°26' W 022°41'1 0.4 1024.4
2014-Jul-23 18:00N 40°25' W 022°41'1 0.8 1024.2
2014-Jul-23 17:00N 40°24' W 022°41'0 0.1 1024.2
2014-Jul-23 16:00N 40°24' W 022°41'0 0.4 1024.4
2014-Jul-23 15:00N 40°24' W 022°40'1 0.4 1024.5
2014-Jul-23 13:00N 40°24' W 022°39'0 0.0 1024.6
2014-Jul-23 12:00N 40°24' W 022°39'0 0.0 1024.5
2014-Jul-23 11:00N 40°24' W 022°39'1 0.6 1024.5
2014-Jul-23 10:00N 40°24' W 022°40'1 0.3 1024.1
2014-Jul-23 08:00N 40°24' W 022°41'1 0.7 1023.7
2014-Jul-23 07:00N 40°23' W 022°41'1 0.5 1023.2
2014-Jul-23 06:00N 40°23' W 022°40'1 0.6 1023.0
2014-Jul-23 05:00N 40°22' W 022°41'1 0.7 1022.9
2014-Jul-23 04:00N 40°22' W 022°40'0 0.5 1023.2
2014-Jul-23 03:00N 40°21' W 022°40'1 0.4 1023.1
2014-Jul-22 23:00N 40°21' W 022°38'1 0.8 1024.2
2014-Jul-22 22:00N 40°22' W 022°37'1 0.6 1024.0
2014-Jul-22 21:00N 40°22' W 022°38'1 0.7 1023.7
2014-Jul-22 20:00N 40°22' W 022°38'0 0.4 1023.2
2014-Jul-22 19:00N 40°23' W 022°39'1 1.0 1022.9
2014-Jul-22 18:00N 40°21' W 022°39'0 0.5 1022.7
2014-Jul-22 17:00N 40°21' W 022°39'0 0.3 1022.5
2014-Jul-22 16:00N 40°21' W 022°39'1 0.5 1022.5
2014-Jul-22 15:00N 40°20' W 022°39'1 0.7 1022.4
2014-Jul-22 13:00N 40°19' W 022°38'0 0.1 1022.5
2014-Jul-22 12:00N 40°19' W 022°38'2 0.8 1022.6
2014-Jul-22 10:00N 40°19' W 022°36'1 0.6 1022.0
2014-Jul-22 09:00N 40°19' W 022°35'0 0.3 1022.1
2014-Jul-22 08:00N 40°19' W 022°35'1 0.7 1021.7
2014-Jul-22 07:00N 40°19' W 022°34'0 0.1 1021.3
2014-Jul-22 06:00N 40°19' W 022°34'0 0.0 1021.0
2014-Jul-22 05:00N 40°19' W 022°34'0 0.4 1020.7
2014-Jul-22 04:00N 40°19' W 022°35'0 0.1 1020.6
2014-Jul-22 03:00N 40°19' W 022°35'1 0.4 1020.7
2014-Jul-22 00:00N 40°17' W 022°35'0 0.0 1022.1
2014-Jul-21 23:00N 40°17' W 022°35'1 0.7 1022.4
2014-Jul-21 22:00N 40°17' W 022°34'1 0.8 1022.5
2014-Jul-21 21:00N 40°18' W 022°35'1 0.7 1022.3
2014-Jul-21 20:00N 40°17' W 022°34'1 0.4 1022.1
2014-Jul-21 18:00N 40°16' W 022°35'0 0.5 1021.9
2014-Jul-21 17:00N 40°16' W 022°35'0 0.3 1022.2
2014-Jul-21 16:00N 40°16' W 022°35'0 0.2 1022.5
2014-Jul-21 15:00N 40°16' W 022°35'1 0.3 1022.8
2014-Jul-21 12:00N 40°15' W 022°35'1 0.8 1023.6
2014-Jul-21 11:00N 40°14' W 022°34'1 0.6 1023.5
2014-Jul-21 10:00N 40°15' W 022°33'1 0.6 1023.5
2014-Jul-21 09:00N 40°14' W 022°34'0 0.2 1023.5
2014-Jul-21 08:00N 40°14' W 022°33'0 0.3 1023.2
2014-Jul-21 07:00N 40°14' W 022°33'1 0.3 1023.0
2014-Jul-21 05:00N 40°14' W 022°34'1 0.6 1022.8
2014-Jul-21 04:00N 40°14' W 022°34'0 0.2 1022.7
2014-Jul-21 02:00N 40°13' W 022°34'0 0.0 1023.3
2014-Jul-21 01:00N 40°13' W 022°34'2 0.6 1023.7
2014-Jul-20 22:00N 40°12' W 022°33'0 0.3 1023.8
2014-Jul-20 21:00N 40°12' W 022°33'0 0.5 1023.4
2014-Jul-20 20:00N 40°12' W 022°33'0 0.0 1023.3
2014-Jul-20 19:00N 40°12' W 022°33'1 0.5 1023.0
2014-Jul-20 18:00N 40°11' W 022°33'0 0.3 1022.9
2014-Jul-20 17:00N 40°11' W 022°33'1 0.3 1023.0
2014-Jul-20 15:00N 40°11' W 022°33'0 0.5 1023.3
2014-Jul-20 14:00N 40°10' W 022°32'1 0.5 1023.3
2014-Jul-20 12:00N 40°11' W 022°31'0 0.1 1023.0
2014-Jul-20 11:00N 40°11' W 022°31'0 0.1 1022.6
2014-Jul-20 10:00N 40°11' W 022°31'1 0.6 1022.3
2014-Jul-20 08:00N 40°10' W 022°33'0 0.0 1021.8
2014-Jul-20 07:00N 40°10' W 022°33'1 0.6 1021.3
2014-Jul-20 06:00N 40°10' W 022°34'0 0.4 1020.8
2014-Jul-20 05:00N 40°10' W 022°33'0 0.5 1020.6
2014-Jul-20 04:00N 40°09' W 022°34'1 0.8 1020.6
2014-Jul-20 03:00N 40°09' W 022°33'1 0.4 1020.7
2014-Jul-20 00:00N 40°08' W 022°34'1 1.1 1020.9
2014-Jul-19 23:00N 40°08' W 022°32'1 0.6 1020.7
2014-Jul-19 22:00N 40°08' W 022°31'0 0.3 1020.2
2014-Jul-19 21:00N 40°08' W 022°31'1 0.6 1019.7
2014-Jul-19 20:00N 40°09' W 022°31'1 0.5 1019.3
2014-Jul-19 19:00N 40°09' W 022°31'1 0.8 1018.7
2014-Jul-19 18:00N 40°09' W 022°31'0 0.2 1018.5
2014-Jul-19 16:00N 40°08' W 022°32'0 0.0 1018.3
2014-Jul-19 15:00N 40°08' W 022°32'1 0.2 1018.4
2014-Jul-19 12:00N 40°08' W 022°32'0 0.2 1018.7
2014-Jul-19 11:00N 40°08' W 022°33'1 1.4 1019.0
2014-Jul-19 10:00N 40°07' W 022°34'1 0.2 1019.3
2014-Jul-19 06:00N 40°07' W 022°33'1 0.9 1018.8
2014-Jul-19 05:00N 40°06' W 022°33'1 0.6 1018.6
2014-Jul-19 04:00N 40°06' W 022°32'0 0.1 1018.4
2014-Jul-19 02:00N 40°06' W 022°32'1 0.5 1019.0
2014-Jul-19 00:00N 40°06' W 022°31'0 0.3 1019.1
2014-Jul-18 23:00N 40°07' W 022°31'0 0.2 1018.8
2014-Jul-18 22:00N 40°07' W 022°31'1 1.1 1018.5
2014-Jul-18 21:00N 40°07' W 022°30'1 0.6 1017.9
2014-Jul-18 19:00N 40°07' W 022°32'0 0.0 1017.0
2014-Jul-18 18:00N 40°07' W 022°32'1 0.3 1017.0
2014-Jul-18 14:00N 40°06' W 022°32'1 0.3 1016.8
2014-Jul-18 12:00N 40°06' W 022°31'1 1.4 1016.6
2014-Jul-18 11:00N 40°06' W 022°29'0 0.2 1016.2
2014-Jul-18 10:00N 40°06' W 022°30'0 0.0 1015.7
2014-Jul-18 09:00N 40°06' W 022°30'1 1.1 1015.2
2014-Jul-18 08:00N 40°06' W 022°28'0 0.4 1014.7
2014-Jul-18 07:00N 40°07' W 022°28'1 1.1 1013.8
2014-Jul-18 06:00N 40°08' W 022°27'1 0.8 1013.7
2014-Jul-18 05:00N 40°08' W 022°28'1 0.7 1013.4
2014-Jul-18 04:00N 40°08' W 022°29'0 0.0 1013.4
2014-Jul-18 03:00N 40°08' W 022°29'0 0.0 1013.7
2014-Jul-18 02:00N 40°08' W 022°29'2 0.7 1013.6
2014-Jul-17 23:00N 40°06' W 022°31'0 0.2 1014.4
2014-Jul-17 21:00N 40°06' W 022°30'1 1.1 1014.0
2014-Jul-17 20:00N 40°06' W 022°29'1 0.4 1014.0
2014-Jul-17 18:00N 40°05' W 022°28'0 0.0 1014.6
2014-Jul-17 17:00N 40°05' W 022°28'0 0.3 1014.7
2014-Jul-17 16:00N 40°05' W 022°28'0 0.1 1015.1
2014-Jul-17 15:00N 40°05' W 022°28'0 0.4 1015.2
2014-Jul-17 14:00N 40°05' W 022°27'1 0.2 1015.5
2014-Jul-17 10:00N 40°06' W 022°28'0 0.0 1015.5
2014-Jul-17 07:00N 40°06' W 022°28'0 0.5 1015.0
2014-Jul-17 06:00N 40°05' W 022°29'1 1.4 1015.0
2014-Jul-17 05:00N 40°04' W 022°30'0 0.0 1015.3
2014-Jul-17 04:00N 40°04' W 022°30'0 0.0 1015.7
2014-Jul-17 03:00N 40°04' W 022°30'2 0.5 1016.6
2014-Jul-17 00:00N 40°03' W 022°30'1 0.7 1018.8
2014-Jul-16 23:00N 40°03' W 022°29'0 0.3 1019.3
2014-Jul-16 22:00N 40°02' W 022°29'0 0.1 1019.3
2014-Jul-16 21:00N 40°02' W 022°29'1 1.0 1018.9
2014-Jul-16 20:00N 40°02' W 022°28'0 0.1 1019.0
2014-Jul-16 19:00N 40°02' W 022°28'1 0.3 1019.2
2014-Jul-16 17:00N 40°02' W 022°29'0 0.1 1019.1
2014-Jul-16 16:00N 40°02' W 022°29'1 0.5 1019.4
2014-Jul-16 15:00N 40°02' W 022°30'0 0.0 1019.5
2014-Jul-16 14:00N 40°02' W 022°30'1 0.5 1019.8
2014-Jul-16 13:00N 40°01' W 022°30'0 0.3 1020.0
2014-Jul-16 12:00N 40°02' W 022°30'0 0.4 1020.3
2014-Jul-16 11:00N 40°01' W 022°30'1 0.6 1020.3
2014-Jul-16 10:00N 40°01' W 022°29'1 0.8 1020.0
2014-Jul-16 09:00N 40°01' W 022°30'1 0.4 1019.9
2014-Jul-16 07:00N 40°01' W 022°29'0 0.2 1019.5
2014-Jul-16 06:00N 40°01' W 022°29'0 0.2 1019.3
2014-Jul-16 04:00N 40°00' W 022°28'1 0.7 1019.6
2014-Jul-16 03:00N 39°60' W 022°29'0 0.4 1020.0
2014-Jul-16 02:00N 39°60' W 022°28'1 0.3 1020.5
2014-Jul-15 23:00N 39°59' W 022°28'0 0.3 1021.5
2014-Jul-15 22:00N 39°59' W 022°27'0 0.2 1021.4
2014-Jul-15 21:00N 39°59' W 022°27'0 0.1 1020.9
2014-Jul-15 19:00N 39°59' W 022°27'0 0.2 1020.5
2014-Jul-15 17:00N 39°59' W 022°27'1 0.8 1020.7
2014-Jul-15 16:00N 39°58' W 022°28'1 0.9 1020.9
2014-Jul-15 15:00N 39°58' W 022°29'1 0.3 1021.2
2014-Jul-15 13:00N 39°58' W 022°28'0 0.2 1021.5
2014-Jul-15 12:00N 39°58' W 022°28'1 1.1 1021.8
2014-Jul-15 11:00N 39°57' W 022°27'0 0.4 1021.8
2014-Jul-15 10:00N 39°57' W 022°27'0 0.4 1021.7
2014-Jul-15 09:00N 39°56' W 022°27'0 0.0 1021.6
2014-Jul-15 08:00N 39°56' W 022°27'0 0.1 1021.4
2014-Jul-15 06:00N 39°57' W 022°27'0 0.1 1021.3
2014-Jul-15 05:00N 39°57' W 022°27'1 0.3 1021.3
2014-Jul-15 03:00N 39°56' W 022°27'2 0.5 1022.1
2014-Jul-15 00:00N 39°55' W 022°29'1 0.6 1023.5
2014-Jul-14 23:00N 39°55' W 022°28'1 1.0 1023.5
2014-Jul-14 22:00N 39°55' W 022°29'2 1.5 1023.4
2014-Jul-14 21:00N 39°54' W 022°28'1 0.3 1022.9
2014-Jul-14 18:00N 39°53' W 022°28'0 0.1 1022.8
2014-Jul-14 17:00N 39°53' W 022°28'0 0.3 1023.3
2014-Jul-14 16:00N 39°53' W 022°28'   1023.5
Track history (hours):
 
Tides and Currents Weather Stations Pressure Air Temp Water Temp Dewpoint Dewpoint Depression Visibility Wind Speed Wind Dir Waves Ship Positions

Drifting buoy 41560

Last reported at 2014-Jul-24 16:00 UTC. Time now 2014-Jul-24 17:52 UTC.
Position N 40°34' W 022°47'.

Barometer 1019.9 mb

Date/timePositionNaut miles runAvg speedWind from/ knotsBaromVisibWave heightAir tempDewpointWater temp
2014-Jul-24 16:00N 40°34' W 022°47'1 0.7 1019.9
2014-Jul-24 15:00N 40°33' W 022°47'1 0.7 1020.5
2014-Jul-24 13:00N 40°32' W 022°46'1 0.8 1021.3
2014-Jul-24 12:00N 40°32' W 022°45'0 0.3 1021.9
2014-Jul-24 11:00N 40°32' W 022°45'0 0.5 1021.6
2014-Jul-24 10:00N 40°32' W 022°44'2 0.6 1022.0
2014-Jul-24 07:00N 40°30' W 022°44'0 0.3 1022.0
2014-Jul-24 06:00N 40°30' W 022°44'0 0.5 1022.3
2014-Jul-24 05:00N 40°29' W 022°44'1 0.6 1022.4
2014-Jul-24 03:00N 40°28' W 022°45'3 0.9 1023.2
2014-Jul-24 00:00N 40°26' W 022°42'0 0.0 1024.5
2014-Jul-23 23:00N 40°26' W 022°42'1 0.6 1024.6
2014-Jul-23 21:00N 40°26' W 022°41'0 0.4 1024.5
2014-Jul-23 20:00N 40°26' W 022°41'1 0.4 1024.4
2014-Jul-23 18:00N 40°25' W 022°41'1 0.8 1024.2
2014-Jul-23 17:00N 40°24' W 022°41'0 0.1 1024.2
2014-Jul-23 16:00N 40°24' W 022°41'0 0.4 1024.4
2014-Jul-23 15:00N 40°24' W 022°40'1 0.4 1024.5
2014-Jul-23 13:00N 40°24' W 022°39'0 0.0 1024.6
2014-Jul-23 12:00N 40°24' W 022°39'0 0.0 1024.5
2014-Jul-23 11:00N 40°24' W 022°39'1 0.6 1024.5
2014-Jul-23 10:00N 40°24' W 022°40'1 0.3 1024.1
2014-Jul-23 08:00N 40°24' W 022°41'1 0.7 1023.7
2014-Jul-23 07:00N 40°23' W 022°41'1 0.5 1023.2
2014-Jul-23 06:00N 40°23' W 022°40'1 0.6 1023.0
2014-Jul-23 05:00N 40°22' W 022°41'1 0.7 1022.9
2014-Jul-23 04:00N 40°22' W 022°40'0 0.5 1023.2
2014-Jul-23 03:00N 40°21' W 022°40'1 0.4 1023.1
2014-Jul-22 23:00N 40°21' W 022°38'1 0.8 1024.2
2014-Jul-22 22:00N 40°22' W 022°37'1 0.6 1024.0
2014-Jul-22 21:00N 40°22' W 022°38'1 0.7 1023.7
2014-Jul-22 20:00N 40°22' W 022°38'0 0.4 1023.2
2014-Jul-22 19:00N 40°23' W 022°39'1 1.0 1022.9
2014-Jul-22 18:00N 40°21' W 022°39'0 0.5 1022.7
2014-Jul-22 17:00N 40°21' W 022°39'0 0.3 1022.5
2014-Jul-22 16:00N 40°21' W 022°39'1 0.5 1022.5
2014-Jul-22 15:00N 40°20' W 022°39'1 0.7 1022.4
2014-Jul-22 13:00N 40°19' W 022°38'0 0.1 1022.5
2014-Jul-22 12:00N 40°19' W 022°38'2 0.8 1022.6
2014-Jul-22 10:00N 40°19' W 022°36'1 0.6 1022.0
2014-Jul-22 09:00N 40°19' W 022°35'0 0.3 1022.1
2014-Jul-22 08:00N 40°19' W 022°35'1 0.7 1021.7
2014-Jul-22 07:00N 40°19' W 022°34'0 0.1 1021.3
2014-Jul-22 06:00N 40°19' W 022°34'0 0.0 1021.0
2014-Jul-22 05:00N 40°19' W 022°34'0 0.4 1020.7
2014-Jul-22 04:00N 40°19' W 022°35'0 0.1 1020.6
2014-Jul-22 03:00N 40°19' W 022°35'1 0.4 1020.7
2014-Jul-22 00:00N 40°17' W 022°35'0 0.0 1022.1
2014-Jul-21 23:00N 40°17' W 022°35'1 0.7 1022.4
2014-Jul-21 22:00N 40°17' W 022°34'1 0.8 1022.5
2014-Jul-21 21:00N 40°18' W 022°35'1 0.7 1022.3
2014-Jul-21 20:00N 40°17' W 022°34'1 0.4 1022.1
2014-Jul-21 18:00N 40°16' W 022°35'0 0.5 1021.9
2014-Jul-21 17:00N 40°16' W 022°35'0 0.3 1022.2
2014-Jul-21 16:00N 40°16' W 022°35'0 0.2 1022.5
2014-Jul-21 15:00N 40°16' W 022°35'1 0.3 1022.8
2014-Jul-21 12:00N 40°15' W 022°35'1 0.8 1023.6
2014-Jul-21 11:00N 40°14' W 022°34'1 0.6 1023.5
2014-Jul-21 10:00N 40°15' W 022°33'1 0.6 1023.5
2014-Jul-21 09:00N 40°14' W 022°34'0 0.2 1023.5
2014-Jul-21 08:00N 40°14' W 022°33'0 0.3 1023.2
2014-Jul-21 07:00N 40°14' W 022°33'1 0.3 1023.0
2014-Jul-21 05:00N 40°14' W 022°34'1 0.6 1022.8
2014-Jul-21 04:00N 40°14' W 022°34'0 0.2 1022.7
2014-Jul-21 02:00N 40°13' W 022°34'0 0.0 1023.3
2014-Jul-21 01:00N 40°13' W 022°34'2 0.6 1023.7
2014-Jul-20 22:00N 40°12' W 022°33'0 0.3 1023.8
2014-Jul-20 21:00N 40°12' W 022°33'0 0.5 1023.4
2014-Jul-20 20:00N 40°12' W 022°33'0 0.0 1023.3
2014-Jul-20 19:00N 40°12' W 022°33'1 0.5 1023.0
2014-Jul-20 18:00N 40°11' W 022°33'0 0.3 1022.9
2014-Jul-20 17:00N 40°11' W 022°33'1 0.3 1023.0
2014-Jul-20 15:00N 40°11' W 022°33'0 0.5 1023.3
2014-Jul-20 14:00N 40°10' W 022°32'1 0.5 1023.3
2014-Jul-20 12:00N 40°11' W 022°31'0 0.1 1023.0
2014-Jul-20 11:00N 40°11' W 022°31'0 0.1 1022.6
2014-Jul-20 10:00N 40°11' W 022°31'1 0.6 1022.3
2014-Jul-20 08:00N 40°10' W 022°33'0 0.0 1021.8
2014-Jul-20 07:00N 40°10' W 022°33'1 0.6 1021.3
2014-Jul-20 06:00N 40°10' W 022°34'0 0.4 1020.8
2014-Jul-20 05:00N 40°10' W 022°33'0 0.5 1020.6
2014-Jul-20 04:00N 40°09' W 022°34'1 0.8 1020.6
2014-Jul-20 03:00N 40°09' W 022°33'1 0.4 1020.7
2014-Jul-20 00:00N 40°08' W 022°34'1 1.1 1020.9
2014-Jul-19 23:00N 40°08' W 022°32'1 0.6 1020.7
2014-Jul-19 22:00N 40°08' W 022°31'0 0.3 1020.2
2014-Jul-19 21:00N 40°08' W 022°31'1 0.6 1019.7
2014-Jul-19 20:00N 40°09' W 022°31'1 0.5 1019.3
2014-Jul-19 19:00N 40°09' W 022°31'1 0.8 1018.7
2014-Jul-19 18:00N 40°09' W 022°31'0 0.2 1018.5
2014-Jul-19 16:00N 40°08' W 022°32'0 0.0 1018.3
2014-Jul-19 15:00N 40°08' W 022°32'1 0.2 1018.4
2014-Jul-19 12:00N 40°08' W 022°32'0 0.2 1018.7
2014-Jul-19 11:00N 40°08' W 022°33'1 1.4 1019.0
2014-Jul-19 10:00N 40°07' W 022°34'1 0.2 1019.3
2014-Jul-19 06:00N 40°07' W 022°33'1 0.9 1018.8
2014-Jul-19 05:00N 40°06' W 022°33'1 0.6 1018.6
2014-Jul-19 04:00N 40°06' W 022°32'0 0.1 1018.4
2014-Jul-19 02:00N 40°06' W 022°32'1 0.5 1019.0
2014-Jul-19 00:00N 40°06' W 022°31'0 0.3 1019.1
2014-Jul-18 23:00N 40°07' W 022°31'0 0.2 1018.8
2014-Jul-18 22:00N 40°07' W 022°31'1 1.1 1018.5
2014-Jul-18 21:00N 40°07' W 022°30'1 0.6 1017.9
2014-Jul-18 19:00N 40°07' W 022°32'0 0.0 1017.0
2014-Jul-18 18:00N 40°07' W 022°32'1 0.3 1017.0
2014-Jul-18 14:00N 40°06' W 022°32'1 0.3 1016.8
2014-Jul-18 12:00N 40°06' W 022°31'1 1.4 1016.6
2014-Jul-18 11:00N 40°06' W 022°29'0 0.2 1016.2
2014-Jul-18 10:00N 40°06' W 022°30'0 0.0 1015.7
2014-Jul-18 09:00N 40°06' W 022°30'1 1.1 1015.2
2014-Jul-18 08:00N 40°06' W 022°28'0 0.4 1014.7
2014-Jul-18 07:00N 40°07' W 022°28'1 1.1 1013.8
2014-Jul-18 06:00N 40°08' W 022°27'1 0.8 1013.7
2014-Jul-18 05:00N 40°08' W 022°28'1 0.7 1013.4
2014-Jul-18 04:00N 40°08' W 022°29'0 0.0 1013.4
2014-Jul-18 03:00N 40°08' W 022°29'0 0.0 1013.7
2014-Jul-18 02:00N 40°08' W 022°29'2 0.7 1013.6
2014-Jul-17 23:00N 40°06' W 022°31'0 0.2 1014.4
2014-Jul-17 21:00N 40°06' W 022°30'1 1.1 1014.0
2014-Jul-17 20:00N 40°06' W 022°29'1 0.4 1014.0
2014-Jul-17 18:00N 40°05' W 022°28'0 0.0 1014.6
2014-Jul-17 17:00N 40°05' W 022°28'0 0.3 1014.7
2014-Jul-17 16:00N 40°05' W 022°28'0 0.1 1015.1
2014-Jul-17 15:00N 40°05' W 022°28'0 0.4 1015.2
2014-Jul-17 14:00N 40°05' W 022°27'1 0.2 1015.5
2014-Jul-17 10:00N 40°06' W 022°28'0 0.0 1015.5
2014-Jul-17 07:00N 40°06' W 022°28'0 0.5 1015.0
2014-Jul-17 06:00N 40°05' W 022°29'1 1.4 1015.0
2014-Jul-17 05:00N 40°04' W 022°30'0 0.0 1015.3
2014-Jul-17 04:00N 40°04' W 022°30'0 0.0 1015.7
2014-Jul-17 03:00N 40°04' W 022°30'2 0.5 1016.6
2014-Jul-17 00:00N 40°03' W 022°30'1 0.7 1018.8
2014-Jul-16 23:00N 40°03' W 022°29'0 0.3 1019.3
2014-Jul-16 22:00N 40°02' W 022°29'0 0.1 1019.3
2014-Jul-16 21:00N 40°02' W 022°29'1 1.0 1018.9
2014-Jul-16 20:00N 40°02' W 022°28'0 0.1 1019.0
2014-Jul-16 19:00N 40°02' W 022°28'1 0.3 1019.2
2014-Jul-16 17:00N 40°02' W 022°29'0 0.1 1019.1
2014-Jul-16 16:00N 40°02' W 022°29'1 0.5 1019.4
2014-Jul-16 15:00N 40°02' W 022°30'0 0.0 1019.5
2014-Jul-16 14:00N 40°02' W 022°30'1 0.5 1019.8
2014-Jul-16 13:00N 40°01' W 022°30'0 0.3 1020.0
2014-Jul-16 12:00N 40°02' W 022°30'0 0.4 1020.3
2014-Jul-16 11:00N 40°01' W 022°30'1 0.6 1020.3
2014-Jul-16 10:00N 40°01' W 022°29'1 0.8 1020.0
2014-Jul-16 09:00N 40°01' W 022°30'1 0.4 1019.9
2014-Jul-16 07:00N 40°01' W 022°29'0 0.2 1019.5
2014-Jul-16 06:00N 40°01' W 022°29'0 0.2 1019.3
2014-Jul-16 04:00N 40°00' W 022°28'1 0.7 1019.6
2014-Jul-16 03:00N 39°60' W 022°29'0 0.4 1020.0
2014-Jul-16 02:00N 39°60' W 022°28'1 0.3 1020.5
2014-Jul-15 23:00N 39°59' W 022°28'0 0.3 1021.5
2014-Jul-15 22:00N 39°59' W 022°27'0 0.2 1021.4
2014-Jul-15 21:00N 39°59' W 022°27'0 0.1 1020.9
2014-Jul-15 19:00N 39°59' W 022°27'0 0.2 1020.5
2014-Jul-15 17:00N 39°59' W 022°27'1 0.8 1020.7
2014-Jul-15 16:00N 39°58' W 022°28'1 0.9 1020.9
2014-Jul-15 15:00N 39°58' W 022°29'1 0.3 1021.2
2014-Jul-15 13:00N 39°58' W 022°28'0 0.2 1021.5
2014-Jul-15 12:00N 39°58' W 022°28'1 1.1 1021.8
2014-Jul-15 11:00N 39°57' W 022°27'0 0.4 1021.8
2014-Jul-15 10:00N 39°57' W 022°27'0 0.4 1021.7
2014-Jul-15 09:00N 39°56' W 022°27'0 0.0 1021.6
2014-Jul-15 08:00N 39°56' W 022°27'0 0.1 1021.4
2014-Jul-15 06:00N 39°57' W 022°27'0 0.1 1021.3
2014-Jul-15 05:00N 39°57' W 022°27'1 0.3 1021.3
2014-Jul-15 03:00N 39°56' W 022°27'2 0.5 1022.1
2014-Jul-15 00:00N 39°55' W 022°29'1 0.6 1023.5
2014-Jul-14 23:00N 39°55' W 022°28'1 1.0 1023.5
2014-Jul-14 22:00N 39°55' W 022°29'2 1.5 1023.4
2014-Jul-14 21:00N 39°54' W 022°28'1 0.3 1022.9
2014-Jul-14 18:00N 39°53' W 022°28'0 0.1 1022.8
2014-Jul-14 17:00N 39°53' W 022°28'0 0.3 1023.3
2014-Jul-14 16:00N 39°53' W 022°28'   1023.5

Dump ship's entire track history